sensor_id;sensor_type;location;lat;lon;timestamp;P1;durP1;ratioP1;P2;durP2;ratioP2
58208;SDS011;44006;52.028;4.696;2022-12-07T00:01:31;9.07;;;2.40;;
58208;SDS011;44006;52.028;4.696;2022-12-07T00:03:58;8.30;;;3.08;;
58208;SDS011;44006;52.028;4.696;2022-12-07T00:06:29;19.83;;;7.45;;
58208;SDS011;44006;52.028;4.696;2022-12-07T00:08:54;25.10;;;6.40;;
58208;SDS011;44006;52.028;4.696;2022-12-07T00:11:20;12.68;;;3.03;;
58208;SDS011;44006;52.028;4.696;2022-12-07T00:13:46;14.02;;;3.28;;
58208;SDS011;44006;52.028;4.696;2022-12-07T00:16:13;11.50;;;2.60;;
58208;SDS011;44006;52.028;4.696;2022-12-07T00:18:40;12.65;;;2.30;;
58208;SDS011;44006;52.028;4.696;2022-12-07T00:21:08;8.48;;;2.40;;
58208;SDS011;44006;52.028;4.696;2022-12-07T00:23:34;9.57;;;2.35;;
58208;SDS011;44006;52.028;4.696;2022-12-07T00:26:03;12.52;;;3.40;;
58208;SDS011;44006;52.028;4.696;2022-12-07T00:28:29;9.73;;;2.05;;
58208;SDS011;44006;52.028;4.696;2022-12-07T00:31:18;7.05;;;1.77;;
58208;SDS011;44006;52.028;4.696;2022-12-07T00:33:42;9.07;;;1.58;;
58208;SDS011;44006;52.028;4.696;2022-12-07T00:36:09;5.35;;;1.60;;
58208;SDS011;44006;52.028;4.696;2022-12-07T00:38:36;9.32;;;1.98;;
58208;SDS011;44006;52.028;4.696;2022-12-07T00:41:03;6.88;;;2.00;;
58208;SDS011;44006;52.028;4.696;2022-12-07T00:43:31;7.10;;;1.50;;
58208;SDS011;44006;52.028;4.696;2022-12-07T00:45:56;6.07;;;1.30;;
58208;SDS011;44006;52.028;4.696;2022-12-07T00:48:22;7.88;;;1.60;;
58208;SDS011;44006;52.028;4.696;2022-12-07T00:50:48;6.43;;;1.67;;
58208;SDS011;44006;52.028;4.696;2022-12-07T00:53:14;8.98;;;1.65;;
58208;SDS011;44006;52.028;4.696;2022-12-07T00:55:42;7.05;;;1.60;;
58208;SDS011;44006;52.028;4.696;2022-12-07T00:58:07;6.93;;;1.60;;
58208;SDS011;44006;52.028;4.696;2022-12-07T01:00:34;4.35;;;1.63;;
58208;SDS011;44006;52.028;4.696;2022-12-07T01:03:00;8.82;;;1.35;;
58208;SDS011;44006;52.028;4.696;2022-12-07T01:05:27;8.20;;;1.35;;
58208;SDS011;44006;52.028;4.696;2022-12-07T01:07:52;6.90;;;1.63;;
58208;SDS011;44006;52.028;4.696;2022-12-07T01:10:18;12.00;;;1.60;;
58208;SDS011;44006;52.028;4.696;2022-12-07T01:12:43;11.60;;;1.67;;
58208;SDS011;44006;52.028;4.696;2022-12-07T01:15:09;8.02;;;1.10;;
58208;SDS011;44006;52.028;4.696;2022-12-07T01:17:35;7.75;;;1.40;;
58208;SDS011;44006;52.028;4.696;2022-12-07T01:20:00;9.80;;;1.30;;
58208;SDS011;44006;52.028;4.696;2022-12-07T01:22:27;7.72;;;1.00;;
58208;SDS011;44006;52.028;4.696;2022-12-07T01:24:52;3.85;;;1.00;;
58208;SDS011;44006;52.028;4.696;2022-12-07T01:27:17;6.65;;;1.10;;
58208;SDS011;44006;52.028;4.696;2022-12-07T01:29:42;5.68;;;1.13;;
58208;SDS011;44006;52.028;4.696;2022-12-07T01:32:09;8.23;;;1.05;;
58208;SDS011;44006;52.028;4.696;2022-12-07T01:34:38;8.75;;;1.10;;
58208;SDS011;44006;52.028;4.696;2022-12-07T01:37:04;8.52;;;1.10;;
58208;SDS011;44006;52.028;4.696;2022-12-07T01:39:30;10.80;;;1.52;;
58208;SDS011;44006;52.028;4.696;2022-12-07T01:41:55;9.13;;;1.02;;
58208;SDS011;44006;52.028;4.696;2022-12-07T01:46:47;5.95;;;1.20;;
58208;SDS011;44006;52.028;4.696;2022-12-07T01:49:28;7.63;;;0.85;;
58208;SDS011;44006;52.028;4.696;2022-12-07T01:51:58;7.22;;;0.95;;
58208;SDS011;44006;52.028;4.696;2022-12-07T01:54:25;8.57;;;1.30;;
58208;SDS011;44006;52.028;4.696;2022-12-07T01:56:51;9.38;;;0.85;;
58208;SDS011;44006;52.028;4.696;2022-12-07T01:59:21;3.00;;;0.82;;
58208;SDS011;44006;52.028;4.696;2022-12-07T02:01:48;8.10;;;1.10;;
58208;SDS011;44006;52.028;4.696;2022-12-07T02:04:14;6.13;;;1.08;;
58208;SDS011;44006;52.028;4.696;2022-12-07T02:06:39;5.70;;;0.70;;
58208;SDS011;44006;52.028;4.696;2022-12-07T02:09:07;4.93;;;0.80;;
58208;SDS011;44006;52.028;4.696;2022-12-07T02:11:33;4.30;;;0.95;;
58208;SDS011;44006;52.028;4.696;2022-12-07T02:13:59;3.85;;;0.77;;
58208;SDS011;44006;52.028;4.696;2022-12-07T02:19:27;7.90;;;1.13;;
58208;SDS011;44006;52.028;4.696;2022-12-07T02:27:11;3.70;;;0.82;;
58208;SDS011;44006;52.028;4.696;2022-12-07T02:32:14;7.90;;;1.00;;
58208;SDS011;44006;52.028;4.696;2022-12-07T02:34:50;7.75;;;1.33;;
58208;SDS011;44006;52.028;4.696;2022-12-07T02:37:32;10.00;;;1.05;;
58208;SDS011;44006;52.028;4.696;2022-12-07T02:40:07;11.20;;;1.40;;
58208;SDS011;44006;52.028;4.696;2022-12-07T02:42:47;9.32;;;1.33;;
58208;SDS011;44006;52.028;4.696;2022-12-07T02:45:14;6.30;;;0.80;;
58208;SDS011;44006;52.028;4.696;2022-12-07T02:47:41;9.00;;;1.20;;
58208;SDS011;44006;52.028;4.696;2022-12-07T02:50:06;5.47;;;0.95;;
58208;SDS011;44006;52.028;4.696;2022-12-07T02:52:33;10.13;;;1.20;;
58208;SDS011;44006;52.028;4.696;2022-12-07T02:54:58;7.07;;;1.20;;
58208;SDS011;44006;52.028;4.696;2022-12-07T03:05:18;9.48;;;1.40;;
58208;SDS011;44006;52.028;4.696;2022-12-07T03:12:45;5.10;;;1.05;;
58208;SDS011;44006;52.028;4.696;2022-12-07T03:15:18;9.18;;;1.38;;
58208;SDS011;44006;52.028;4.696;2022-12-07T03:17:48;9.90;;;1.20;;
58208;SDS011;44006;52.028;4.696;2022-12-07T03:20:15;8.10;;;1.10;;
58208;SDS011;44006;52.028;4.696;2022-12-07T03:22:42;8.00;;;0.93;;
58208;SDS011;44006;52.028;4.696;2022-12-07T03:25:10;7.60;;;0.93;;
58208;SDS011;44006;52.028;4.696;2022-12-07T03:27:39;9.05;;;1.05;;
58208;SDS011;44006;52.028;4.696;2022-12-07T03:30:13;9.18;;;1.17;;
58208;SDS011;44006;52.028;4.696;2022-12-07T03:32:43;4.68;;;1.42;;
58208;SDS011;44006;52.028;4.696;2022-12-07T03:37:48;8.35;;;1.05;;
58208;SDS011;44006;52.028;4.696;2022-12-07T03:43:01;13.32;;;1.10;;
58208;SDS011;44006;52.028;4.696;2022-12-07T03:50:52;8.43;;;1.13;;
58208;SDS011;44006;52.028;4.696;2022-12-07T03:53:24;7.47;;;1.40;;
58208;SDS011;44006;52.028;4.696;2022-12-07T03:55:51;7.45;;;1.30;;
58208;SDS011;44006;52.028;4.696;2022-12-07T03:58:19;13.35;;;1.00;;
58208;SDS011;44006;52.028;4.696;2022-12-07T04:00:46;7.93;;;1.38;;
58208;SDS011;44006;52.028;4.696;2022-12-07T04:03:12;7.15;;;1.10;;
58208;SDS011;44006;52.028;4.696;2022-12-07T04:05:37;5.93;;;1.00;;
58208;SDS011;44006;52.028;4.696;2022-12-07T04:08:06;7.93;;;1.00;;
58208;SDS011;44006;52.028;4.696;2022-12-07T04:10:38;10.52;;;1.13;;
58208;SDS011;44006;52.028;4.696;2022-12-07T04:13:03;7.47;;;1.00;;
58208;SDS011;44006;52.028;4.696;2022-12-07T04:15:29;8.85;;;1.05;;
58208;SDS011;44006;52.028;4.696;2022-12-07T04:17:54;9.57;;;1.10;;
58208;SDS011;44006;52.028;4.696;2022-12-07T04:20:20;8.95;;;1.30;;
58208;SDS011;44006;52.028;4.696;2022-12-07T04:22:45;7.85;;;1.10;;
58208;SDS011;44006;52.028;4.696;2022-12-07T04:25:11;10.52;;;1.10;;
58208;SDS011;44006;52.028;4.696;2022-12-07T04:27:38;8.55;;;0.98;;
58208;SDS011;44006;52.028;4.696;2022-12-07T04:30:03;7.10;;;1.13;;
58208;SDS011;44006;52.028;4.696;2022-12-07T04:32:29;9.45;;;1.10;;
58208;SDS011;44006;52.028;4.696;2022-12-07T04:34:54;7.38;;;1.00;;
58208;SDS011;44006;52.028;4.696;2022-12-07T04:37:19;6.70;;;1.65;;
58208;SDS011;44006;52.028;4.696;2022-12-07T04:39:45;9.77;;;1.20;;
58208;SDS011;44006;52.028;4.696;2022-12-07T04:42:10;5.68;;;1.10;;
58208;SDS011;44006;52.028;4.696;2022-12-07T04:44:36;10.57;;;1.52;;
58208;SDS011;44006;52.028;4.696;2022-12-07T04:47:01;9.30;;;0.90;;
58208;SDS011;44006;52.028;4.696;2022-12-07T04:49:26;9.68;;;1.02;;
58208;SDS011;44006;52.028;4.696;2022-12-07T04:51:52;9.05;;;1.17;;
58208;SDS011;44006;52.028;4.696;2022-12-07T04:54:17;12.07;;;1.38;;
58208;SDS011;44006;52.028;4.696;2022-12-07T04:56:44;7.40;;;1.33;;
58208;SDS011;44006;52.028;4.696;2022-12-07T04:59:14;9.32;;;1.05;;
58208;SDS011;44006;52.028;4.696;2022-12-07T05:01:39;8.70;;;1.80;;
58208;SDS011;44006;52.028;4.696;2022-12-07T05:04:05;11.52;;;1.35;;
58208;SDS011;44006;52.028;4.696;2022-12-07T05:06:31;8.60;;;1.27;;
58208;SDS011;44006;52.028;4.696;2022-12-07T05:08:56;12.05;;;1.33;;
58208;SDS011;44006;52.028;4.696;2022-12-07T05:11:22;7.70;;;1.45;;
58208;SDS011;44006;52.028;4.696;2022-12-07T05:14:11;7.20;;;0.95;;
58208;SDS011;44006;52.028;4.696;2022-12-07T05:16:37;9.95;;;1.33;;
58208;SDS011;44006;52.028;4.696;2022-12-07T05:19:03;10.05;;;1.38;;
58208;SDS011;44006;52.028;4.696;2022-12-07T05:21:28;5.93;;;1.35;;
58208;SDS011;44006;52.028;4.696;2022-12-07T05:23:54;9.38;;;1.10;;
58208;SDS011;44006;52.028;4.696;2022-12-07T05:26:19;7.28;;;1.30;;
58208;SDS011;44006;52.028;4.696;2022-12-07T05:28:44;12.82;;;1.70;;
58208;SDS011;44006;52.028;4.696;2022-12-07T05:31:11;5.20;;;0.80;;
58208;SDS011;44006;52.028;4.696;2022-12-07T05:33:36;9.50;;;1.42;;
58208;SDS011;44006;52.028;4.696;2022-12-07T05:36:01;9.35;;;1.35;;
58208;SDS011;44006;52.028;4.696;2022-12-07T05:38:31;8.48;;;1.50;;
58208;SDS011;44006;52.028;4.696;2022-12-07T05:41:01;7.95;;;1.20;;
58208;SDS011;44006;52.028;4.696;2022-12-07T05:43:27;11.93;;;1.10;;
58208;SDS011;44006;52.028;4.696;2022-12-07T05:45:53;13.20;;;1.33;;
58208;SDS011;44006;52.028;4.696;2022-12-07T05:48:20;6.82;;;1.30;;
58208;SDS011;44006;52.028;4.696;2022-12-07T05:50:47;7.50;;;1.35;;
58208;SDS011;44006;52.028;4.696;2022-12-07T05:53:12;10.43;;;1.50;;
58208;SDS011;44006;52.028;4.696;2022-12-07T05:55:38;16.25;;;2.15;;
58208;SDS011;44006;52.028;4.696;2022-12-07T06:00:57;10.45;;;1.30;;
58208;SDS011;44006;52.028;4.696;2022-12-07T06:03:22;10.13;;;1.48;;
58208;SDS011;44006;52.028;4.696;2022-12-07T06:05:48;10.15;;;1.08;;
58208;SDS011;44006;52.028;4.696;2022-12-07T06:08:15;7.63;;;1.02;;
58208;SDS011;44006;52.028;4.696;2022-12-07T06:10:41;9.13;;;1.30;;
58208;SDS011;44006;52.028;4.696;2022-12-07T06:13:08;7.28;;;1.10;;
58208;SDS011;44006;52.028;4.696;2022-12-07T06:15:36;7.53;;;0.70;;
58208;SDS011;44006;52.028;4.696;2022-12-07T06:18:04;9.07;;;1.05;;
58208;SDS011;44006;52.028;4.696;2022-12-07T06:20:32;10.57;;;1.27;;
58208;SDS011;44006;52.028;4.696;2022-12-07T06:22:58;9.18;;;1.30;;
58208;SDS011;44006;52.028;4.696;2022-12-07T06:25:24;8.30;;;1.67;;
58208;SDS011;44006;52.028;4.696;2022-12-07T06:27:50;3.97;;;1.17;;
58208;SDS011;44006;52.028;4.696;2022-12-07T06:30:15;6.22;;;1.15;;
58208;SDS011;44006;52.028;4.696;2022-12-07T06:32:41;7.75;;;1.33;;
58208;SDS011;44006;52.028;4.696;2022-12-07T06:35:07;3.90;;;1.27;;
58208;SDS011;44006;52.028;4.696;2022-12-07T06:37:32;6.50;;;1.15;;
58208;SDS011;44006;52.028;4.696;2022-12-07T06:39:57;6.72;;;1.48;;
58208;SDS011;44006;52.028;4.696;2022-12-07T06:42:23;4.95;;;1.10;;
58208;SDS011;44006;52.028;4.696;2022-12-07T06:44:49;9.90;;;1.60;;
58208;SDS011;44006;52.028;4.696;2022-12-07T06:47:15;7.07;;;1.30;;
58208;SDS011;44006;52.028;4.696;2022-12-07T06:49:42;7.72;;;1.40;;
58208;SDS011;44006;52.028;4.696;2022-12-07T06:52:07;6.28;;;1.17;;
58208;SDS011;44006;52.028;4.696;2022-12-07T06:54:32;8.93;;;1.63;;
58208;SDS011;44006;52.028;4.696;2022-12-07T06:56:58;8.60;;;1.95;;
58208;SDS011;44006;52.028;4.696;2022-12-07T06:59:23;10.98;;;1.80;;
58208;SDS011;44006;52.028;4.696;2022-12-07T07:01:48;10.82;;;2.08;;
58208;SDS011;44006;52.028;4.696;2022-12-07T07:04:14;13.93;;;2.40;;
58208;SDS011;44006;52.028;4.696;2022-12-07T07:06:39;8.70;;;2.03;;
58208;SDS011;44006;52.028;4.696;2022-12-07T07:09:04;8.27;;;2.15;;
58208;SDS011;44006;52.028;4.696;2022-12-07T07:11:29;8.88;;;1.67;;
58208;SDS011;44006;52.028;4.696;2022-12-07T07:13:55;6.70;;;1.70;;
58208;SDS011;44006;52.028;4.696;2022-12-07T07:16:23;12.32;;;2.53;;
58208;SDS011;44006;52.028;4.696;2022-12-07T07:18:48;10.00;;;2.20;;
58208;SDS011;44006;52.028;4.696;2022-12-07T07:21:14;10.77;;;1.98;;
58208;SDS011;44006;52.028;4.696;2022-12-07T07:23:41;9.07;;;1.80;;
58208;SDS011;44006;52.028;4.696;2022-12-07T07:26:06;10.35;;;2.15;;
58208;SDS011;44006;52.028;4.696;2022-12-07T07:28:35;9.30;;;1.67;;
58208;SDS011;44006;52.028;4.696;2022-12-07T07:31:02;7.15;;;1.55;;
58208;SDS011;44006;52.028;4.696;2022-12-07T07:33:32;3.88;;;1.50;;
58208;SDS011;44006;52.028;4.696;2022-12-07T07:35:58;5.43;;;1.80;;
58208;SDS011;44006;52.028;4.696;2022-12-07T07:38:23;6.35;;;1.73;;
58208;SDS011;44006;52.028;4.696;2022-12-07T07:40:49;5.32;;;1.95;;
58208;SDS011;44006;52.028;4.696;2022-12-07T07:43:15;6.53;;;1.65;;
58208;SDS011;44006;52.028;4.696;2022-12-07T07:45:40;7.93;;;1.55;;
58208;SDS011;44006;52.028;4.696;2022-12-07T07:48:05;6.20;;;1.83;;
58208;SDS011;44006;52.028;4.696;2022-12-07T07:50:31;5.43;;;2.00;;
58208;SDS011;44006;52.028;4.696;2022-12-07T07:52:57;12.90;;;2.28;;
58208;SDS011;44006;52.028;4.696;2022-12-07T07:55:23;7.47;;;1.92;;
58208;SDS011;44006;52.028;4.696;2022-12-07T07:57:49;7.25;;;2.40;;
58208;SDS011;44006;52.028;4.696;2022-12-07T08:00:15;9.38;;;2.33;;
58208;SDS011;44006;52.028;4.696;2022-12-07T08:02:42;7.68;;;2.90;;
58208;SDS011;44006;52.028;4.696;2022-12-07T08:05:11;11.00;;;3.70;;
58208;SDS011;44006;52.028;4.696;2022-12-07T08:07:39;12.50;;;3.75;;
58208;SDS011;44006;52.028;4.696;2022-12-07T08:10:05;12.90;;;3.45;;
58208;SDS011;44006;52.028;4.696;2022-12-07T08:12:31;8.38;;;3.50;;
58208;SDS011;44006;52.028;4.696;2022-12-07T08:15:01;10.27;;;3.78;;
58208;SDS011;44006;52.028;4.696;2022-12-07T08:17:27;8.73;;;3.00;;
58208;SDS011;44006;52.028;4.696;2022-12-07T08:19:54;9.18;;;3.20;;
58208;SDS011;44006;52.028;4.696;2022-12-07T08:22:21;9.27;;;3.00;;
58208;SDS011;44006;52.028;4.696;2022-12-07T08:24:47;9.48;;;2.80;;
58208;SDS011;44006;52.028;4.696;2022-12-07T08:27:16;7.43;;;2.88;;
58208;SDS011;44006;52.028;4.696;2022-12-07T08:29:44;5.32;;;2.72;;
58208;SDS011;44006;52.028;4.696;2022-12-07T08:32:09;7.05;;;2.60;;
58208;SDS011;44006;52.028;4.696;2022-12-07T08:34:34;8.65;;;2.65;;
58208;SDS011;44006;52.028;4.696;2022-12-07T08:37:00;9.93;;;2.55;;
58208;SDS011;44006;52.028;4.696;2022-12-07T08:39:28;10.15;;;2.78;;
58208;SDS011;44006;52.028;4.696;2022-12-07T08:41:53;8.15;;;3.25;;
58208;SDS011;44006;52.028;4.696;2022-12-07T08:44:18;8.43;;;2.00;;
58208;SDS011;44006;52.028;4.696;2022-12-07T08:46:48;8.05;;;2.35;;
58208;SDS011;44006;52.028;4.696;2022-12-07T08:52:17;8.55;;;2.20;;
58208;SDS011;44006;52.028;4.696;2022-12-07T08:54:44;8.15;;;2.40;;
58208;SDS011;44006;52.028;4.696;2022-12-07T08:57:11;6.00;;;2.00;;
58208;SDS011;44006;52.028;4.696;2022-12-07T08:59:45;8.65;;;2.63;;
58208;SDS011;44006;52.028;4.696;2022-12-07T09:02:10;9.27;;;2.40;;
58208;SDS011;44006;52.028;4.696;2022-12-07T09:04:38;8.55;;;2.50;;
58208;SDS011;44006;52.028;4.696;2022-12-07T09:07:04;8.70;;;2.40;;
58208;SDS011;44006;52.028;4.696;2022-12-07T09:09:32;9.82;;;2.60;;
58208;SDS011;44006;52.028;4.696;2022-12-07T09:11:57;10.90;;;2.40;;
58208;SDS011;44006;52.028;4.696;2022-12-07T09:14:37;8.60;;;2.55;;
58208;SDS011;44006;52.028;4.696;2022-12-07T09:17:10;5.10;;;2.40;;
58208;SDS011;44006;52.028;4.696;2022-12-07T09:19:38;7.85;;;2.28;;
58208;SDS011;44006;52.028;4.696;2022-12-07T09:22:13;7.65;;;2.47;;
58208;SDS011;44006;52.028;4.696;2022-12-07T09:24:39;8.73;;;2.20;;
58208;SDS011;44006;52.028;4.696;2022-12-07T09:27:12;9.77;;;1.60;;
58208;SDS011;44006;52.028;4.696;2022-12-07T09:29:42;3.35;;;1.20;;
58208;SDS011;44006;52.028;4.696;2022-12-07T09:32:13;4.05;;;1.00;;
58208;SDS011;44006;52.028;4.696;2022-12-07T09:34:39;2.97;;;1.50;;
58208;SDS011;44006;52.028;4.696;2022-12-07T09:39:37;6.90;;;1.30;;
58208;SDS011;44006;52.028;4.696;2022-12-07T09:42:03;5.47;;;1.35;;
58208;SDS011;44006;52.028;4.696;2022-12-07T09:44:31;8.63;;;1.40;;
58208;SDS011;44006;52.028;4.696;2022-12-07T09:46:56;6.03;;;1.30;;
58208;SDS011;44006;52.028;4.696;2022-12-07T09:49:25;8.30;;;1.40;;
58208;SDS011;44006;52.028;4.696;2022-12-07T09:54:41;4.32;;;1.25;;
58208;SDS011;44006;52.028;4.696;2022-12-07T09:57:09;6.75;;;1.38;;
58208;SDS011;44006;52.028;4.696;2022-12-07T09:59:36;9.13;;;1.42;;
58208;SDS011;44006;52.028;4.696;2022-12-07T10:02:17;4.85;;;1.48;;
58208;SDS011;44006;52.028;4.696;2022-12-07T10:04:47;8.55;;;1.67;;
58208;SDS011;44006;52.028;4.696;2022-12-07T10:07:12;6.63;;;1.60;;
58208;SDS011;44006;52.028;4.696;2022-12-07T10:09:37;10.52;;;1.77;;
58208;SDS011;44006;52.028;4.696;2022-12-07T10:12:04;6.88;;;1.88;;
58208;SDS011;44006;52.028;4.696;2022-12-07T10:14:33;8.88;;;1.70;;
58208;SDS011;44006;52.028;4.696;2022-12-07T10:16:59;6.60;;;1.92;;
58208;SDS011;44006;52.028;4.696;2022-12-07T10:19:31;7.57;;;1.70;;
58208;SDS011;44006;52.028;4.696;2022-12-07T10:24:43;12.20;;;2.20;;
58208;SDS011;44006;52.028;4.696;2022-12-07T10:27:26;7.75;;;2.28;;
58208;SDS011;44006;52.028;4.696;2022-12-07T10:29:56;7.30;;;2.50;;
58208;SDS011;44006;52.028;4.696;2022-12-07T10:32:35;8.93;;;2.80;;
58208;SDS011;44006;52.028;4.696;2022-12-07T10:37:46;10.88;;;2.90;;
58208;SDS011;44006;52.028;4.696;2022-12-07T10:40:27;9.57;;;2.80;;
58208;SDS011;44006;52.028;4.696;2022-12-07T10:45:35;10.27;;;3.25;;
58208;SDS011;44006;52.028;4.696;2022-12-07T10:48:22;11.52;;;3.42;;
58208;SDS011;44006;52.028;4.696;2022-12-07T10:56:41;11.73;;;3.45;;
58208;SDS011;44006;52.028;4.696;2022-12-07T11:10:28;10.50;;;3.60;;
58208;SDS011;44006;52.028;4.696;2022-12-07T11:20:49;15.40;;;3.55;;
58208;SDS011;44006;52.028;4.696;2022-12-07T11:23:18;13.55;;;2.40;;
58208;SDS011;44006;52.028;4.696;2022-12-07T11:33:47;14.85;;;3.03;;
58208;SDS011;44006;52.028;4.696;2022-12-07T11:38:53;14.77;;;3.00;;
58208;SDS011;44006;52.028;4.696;2022-12-07T11:41:31;13.48;;;2.88;;
58208;SDS011;44006;52.028;4.696;2022-12-07T11:46:37;9.85;;;1.88;;
58208;SDS011;44006;52.028;4.696;2022-12-07T11:49:19;13.63;;;2.10;;
58208;SDS011;44006;52.028;4.696;2022-12-07T11:51:47;12.98;;;1.67;;
58208;SDS011;44006;52.028;4.696;2022-12-07T11:54:20;13.68;;;1.70;;
58208;SDS011;44006;52.028;4.696;2022-12-07T11:56:49;11.63;;;1.88;;
58208;SDS011;44006;52.028;4.696;2022-12-07T12:07:29;7.05;;;0.90;;
58208;SDS011;44006;52.028;4.696;2022-12-07T12:10:02;10.23;;;1.23;;
58208;SDS011;44006;52.028;4.696;2022-12-07T12:12:45;9.32;;;1.20;;
58208;SDS011;44006;52.028;4.696;2022-12-07T12:15:18;7.13;;;1.10;;
58208;SDS011;44006;52.028;4.696;2022-12-07T12:17:51;8.80;;;1.20;;
58208;SDS011;44006;52.028;4.696;2022-12-07T12:23:04;10.23;;;1.42;;
58208;SDS011;44006;52.028;4.696;2022-12-07T12:25:41;8.45;;;1.20;;
58208;SDS011;44006;52.028;4.696;2022-12-07T12:28:24;8.43;;;1.25;;
58208;SDS011;44006;52.028;4.696;2022-12-07T12:31:09;5.72;;;1.00;;
58208;SDS011;44006;52.028;4.696;2022-12-07T12:33:36;7.10;;;0.90;;
58208;SDS011;44006;52.028;4.696;2022-12-07T12:43:58;5.18;;;0.98;;
58208;SDS011;44006;52.028;4.696;2022-12-07T12:48:56;8.57;;;1.00;;
58208;SDS011;44006;52.028;4.696;2022-12-07T12:51:39;6.05;;;1.23;;
58208;SDS011;44006;52.028;4.696;2022-12-07T12:54:05;7.88;;;1.02;;
58208;SDS011;44006;52.028;4.696;2022-12-07T12:59:21;8.02;;;1.20;;
58208;SDS011;44006;52.028;4.696;2022-12-07T13:01:53;5.47;;;0.75;;
58208;SDS011;44006;52.028;4.696;2022-12-07T13:04:27;4.93;;;1.05;;
58208;SDS011;44006;52.028;4.696;2022-12-07T13:07:00;6.03;;;1.20;;
58208;SDS011;44006;52.028;4.696;2022-12-07T13:09:30;4.75;;;1.13;;
58208;SDS011;44006;52.028;4.696;2022-12-07T13:12:00;8.82;;;1.17;;
58208;SDS011;44006;52.028;4.696;2022-12-07T13:14:44;5.95;;;1.30;;
58208;SDS011;44006;52.028;4.696;2022-12-07T13:22:59;6.95;;;1.15;;
58208;SDS011;44006;52.028;4.696;2022-12-07T13:25:36;5.38;;;1.20;;
58208;SDS011;44006;52.028;4.696;2022-12-07T13:28:10;3.03;;;0.80;;
58208;SDS011;44006;52.028;4.696;2022-12-07T13:30:45;3.72;;;1.05;;
58208;SDS011;44006;52.028;4.696;2022-12-07T13:33:13;6.80;;;1.17;;
58208;SDS011;44006;52.028;4.696;2022-12-07T13:35:40;7.18;;;1.10;;
58208;SDS011;44006;52.028;4.696;2022-12-07T13:38:14;6.43;;;1.00;;
58208;SDS011;44006;52.028;4.696;2022-12-07T13:40:59;9.95;;;1.23;;
58208;SDS011;44006;52.028;4.696;2022-12-07T13:43:28;5.68;;;1.02;;
58208;SDS011;44006;52.028;4.696;2022-12-07T13:45:57;5.68;;;1.10;;
58208;SDS011;44006;52.028;4.696;2022-12-07T13:51:14;5.50;;;1.00;;
58208;SDS011;44006;52.028;4.696;2022-12-07T13:53:46;5.68;;;0.75;;
58208;SDS011;44006;52.028;4.696;2022-12-07T13:56:14;4.47;;;0.90;;
58208;SDS011;44006;52.028;4.696;2022-12-07T13:58:42;4.53;;;0.80;;
58208;SDS011;44006;52.028;4.696;2022-12-07T14:01:15;6.30;;;2.22;;
58208;SDS011;44006;52.028;4.696;2022-12-07T14:03:44;6.60;;;1.48;;
58208;SDS011;44006;52.028;4.696;2022-12-07T14:06:20;2.92;;;0.98;;
58208;SDS011;44006;52.028;4.696;2022-12-07T14:11:55;5.28;;;1.10;;
58208;SDS011;44006;52.028;4.696;2022-12-07T14:14:25;4.40;;;0.90;;
58208;SDS011;44006;52.028;4.696;2022-12-07T14:16:58;3.95;;;0.98;;
58208;SDS011;44006;52.028;4.696;2022-12-07T14:19:41;3.40;;;0.82;;
58208;SDS011;44006;52.028;4.696;2022-12-07T14:22:28;7.60;;;1.63;;
58208;SDS011;44006;52.028;4.696;2022-12-07T14:25:16;7.72;;;3.00;;
58208;SDS011;44006;52.028;4.696;2022-12-07T14:27:46;5.95;;;1.50;;
58208;SDS011;44006;52.028;4.696;2022-12-07T14:30:15;4.20;;;1.63;;
58208;SDS011;44006;52.028;4.696;2022-12-07T14:32:40;5.50;;;1.40;;
58208;SDS011;44006;52.028;4.696;2022-12-07T14:35:12;3.85;;;1.00;;
58208;SDS011;44006;52.028;4.696;2022-12-07T14:37:41;8.40;;;1.13;;
58208;SDS011;44006;52.028;4.696;2022-12-07T14:40:06;3.88;;;1.00;;
58208;SDS011;44006;52.028;4.696;2022-12-07T14:42:39;3.75;;;1.55;;
58208;SDS011;44006;52.028;4.696;2022-12-07T14:45:13;3.72;;;0.93;;
58208;SDS011;44006;52.028;4.696;2022-12-07T14:47:56;4.63;;;1.00;;
58208;SDS011;44006;52.028;4.696;2022-12-07T14:50:36;6.07;;;1.55;;
58208;SDS011;44006;52.028;4.696;2022-12-07T14:53:16;5.18;;;1.02;;
58208;SDS011;44006;52.028;4.696;2022-12-07T14:55:46;4.85;;;0.80;;
58208;SDS011;44006;52.028;4.696;2022-12-07T14:58:15;6.97;;;1.00;;
58208;SDS011;44006;52.028;4.696;2022-12-07T15:00:43;4.28;;;1.38;;
58208;SDS011;44006;52.028;4.696;2022-12-07T15:03:10;5.07;;;1.00;;
58208;SDS011;44006;52.028;4.696;2022-12-07T15:05:37;4.60;;;1.00;;
58208;SDS011;44006;52.028;4.696;2022-12-07T15:08:03;5.85;;;1.25;;
58208;SDS011;44006;52.028;4.696;2022-12-07T15:10:31;5.25;;;1.02;;
58208;SDS011;44006;52.028;4.696;2022-12-07T15:13:02;7.65;;;1.17;;
58208;SDS011;44006;52.028;4.696;2022-12-07T15:15:52;6.72;;;1.15;;
58208;SDS011;44006;52.028;4.696;2022-12-07T15:18:24;4.78;;;1.40;;
58208;SDS011;44006;52.028;4.696;2022-12-07T15:23:19;7.07;;;1.35;;
58208;SDS011;44006;52.028;4.696;2022-12-07T15:25:49;6.97;;;1.45;;
58208;SDS011;44006;52.028;4.696;2022-12-07T15:28:16;5.20;;;1.40;;
58208;SDS011;44006;52.028;4.696;2022-12-07T15:30:42;3.05;;;1.20;;
58208;SDS011;44006;52.028;4.696;2022-12-07T15:33:12;7.65;;;1.90;;
58208;SDS011;44006;52.028;4.696;2022-12-07T15:35:41;10.18;;;4.53;;
58208;SDS011;44006;52.028;4.696;2022-12-07T15:38:12;14.25;;;4.10;;
58208;SDS011;44006;52.028;4.696;2022-12-07T15:40:40;9.43;;;4.55;;
58208;SDS011;44006;52.028;4.696;2022-12-07T15:43:07;12.07;;;4.38;;
58208;SDS011;44006;52.028;4.696;2022-12-07T15:45:53;8.93;;;3.08;;
58208;SDS011;44006;52.028;4.696;2022-12-07T15:51:07;6.85;;;2.28;;
58208;SDS011;44006;52.028;4.696;2022-12-07T15:53:34;7.88;;;3.17;;
58208;SDS011;44006;52.028;4.696;2022-12-07T15:56:00;10.00;;;2.97;;
58208;SDS011;44006;52.028;4.696;2022-12-07T15:58:27;8.77;;;2.33;;
58208;SDS011;44006;52.028;4.696;2022-12-07T16:00:52;6.65;;;2.75;;
58208;SDS011;44006;52.028;4.696;2022-12-07T16:03:19;10.00;;;2.78;;
58208;SDS011;44006;52.028;4.696;2022-12-07T16:05:51;7.60;;;2.80;;
58208;SDS011;44006;52.028;4.696;2022-12-07T16:08:17;7.07;;;2.92;;
58208;SDS011;44006;52.028;4.696;2022-12-07T16:10:43;8.98;;;2.67;;
58208;SDS011;44006;52.028;4.696;2022-12-07T16:13:10;6.22;;;2.30;;
58208;SDS011;44006;52.028;4.696;2022-12-07T16:15:39;8.95;;;2.20;;
58208;SDS011;44006;52.028;4.696;2022-12-07T16:18:05;5.55;;;2.33;;
58208;SDS011;44006;52.028;4.696;2022-12-07T16:20:37;8.80;;;5.97;;
58208;SDS011;44006;52.028;4.696;2022-12-07T16:23:03;6.25;;;5.05;;
58208;SDS011;44006;52.028;4.696;2022-12-07T16:25:29;10.90;;;4.88;;
58208;SDS011;44006;52.028;4.696;2022-12-07T16:27:55;7.80;;;4.50;;
58208;SDS011;44006;52.028;4.696;2022-12-07T16:30:20;13.05;;;4.90;;
58208;SDS011;44006;52.028;4.696;2022-12-07T16:32:52;6.68;;;3.13;;
58208;SDS011;44006;52.028;4.696;2022-12-07T16:35:33;8.55;;;3.53;;
58208;SDS011;44006;52.028;4.696;2022-12-07T16:38:08;5.97;;;3.08;;
58208;SDS011;44006;52.028;4.696;2022-12-07T16:40:34;6.63;;;2.58;;
58208;SDS011;44006;52.028;4.696;2022-12-07T16:43:02;8.50;;;3.03;;
58208;SDS011;44006;52.028;4.696;2022-12-07T16:45:28;9.32;;;3.38;;
58208;SDS011;44006;52.028;4.696;2022-12-07T16:47:53;5.75;;;2.45;;
58208;SDS011;44006;52.028;4.696;2022-12-07T16:50:26;8.05;;;3.55;;
58208;SDS011;44006;52.028;4.696;2022-12-07T16:52:52;8.88;;;4.00;;
58208;SDS011;44006;52.028;4.696;2022-12-07T16:57:47;9.82;;;3.97;;
58208;SDS011;44006;52.028;4.696;2022-12-07T17:00:12;12.90;;;4.80;;
58208;SDS011;44006;52.028;4.696;2022-12-07T17:02:38;13.20;;;4.93;;
58208;SDS011;44006;52.028;4.696;2022-12-07T17:05:04;9.82;;;4.40;;
58208;SDS011;44006;52.028;4.696;2022-12-07T17:07:29;15.00;;;5.35;;
58208;SDS011;44006;52.028;4.696;2022-12-07T17:09:54;10.20;;;4.78;;
58208;SDS011;44006;52.028;4.696;2022-12-07T17:12:19;12.93;;;4.60;;